Terminal Aerodrome Forecast
Issued by NWS Sioux Falls, SD

Home | Current Version | Previous Version | Text Only | Print | Product List | Glossary On
Versions: 1 2 3 4 5 6 7 8 9 10 11 12 13
000
FTUS43 KFSD 230538
TAFSUX
TAF
KSUX 230538Z 2306/2406 16012KT P6SM SCT120 WS020/19040KT
     FM230900 16009KT P6SM SCT120
     FM231700 17011KT P6SM BKN070
     FM232100 16013G19KT P6SM BKN060
     FM240000 15009KT P6SM SCT070=

USA.gov is the U.S. government's official web portal to all federal, state and local government web resources and services.